Time;durP1;ratioP1;P1;durP2;ratioP2;P2;SDS_P1;SDS_P2;PMS_P1;PMS_P2;Temp;Humidity;BMP_temperature;BMP_pressure;BME280_temperature;BME280_humidity;BME280_pressure;Samples;Min_cycle;Max_cycle;Signal;HPM_P1;HPM_P2
2021/11/10 00:00:00;;;;;;;10.23;5.65;;;6.40;99.90;;;;;;5106881;28;20034;-85
2021/11/10 00:02:26;;;;;;;11.55;5.88;;;6.30;99.90;;;;;;5107029;28;20459;-85
2021/11/10 00:04:51;;;;;;;9.68;5.20;;;6.30;99.90;;;;;;5107864;28;20031;-85
2021/11/10 00:07:17;;;;;;;10.15;6.03;;;6.30;99.90;;;;;;5106759;28;20088;-84
2021/11/10 00:09:44;;;;;;;13.60;5.80;;;6.30;99.90;;;;;;5108125;28;20452;-85
2021/11/10 00:12:10;;;;;;;10.52;5.65;;;6.10;99.90;;;;;;5107041;28;20047;-85
2021/11/10 00:14:37;;;;;;;9.20;5.70;;;6.10;99.90;;;;;;5108098;28;20506;-85
2021/11/10 00:17:03;;;;;;;11.73;5.53;;;6.10;99.90;;;;;;5106967;28;20449;-85
2021/11/10 00:19:29;;;;;;;8.55;4.93;;;6.10;99.90;;;;;;5106608;28;20100;-85
2021/11/10 00:21:54;;;;;;;9.93;5.57;;;6.00;99.90;;;;;;5090079;28;20027;-85
2021/11/10 00:24:20;;;;;;;11.30;6.03;;;5.90;99.90;;;;;;5107291;28;20450;-84
2021/11/10 00:26:46;;;;;;;12.00;5.20;;;5.90;99.90;;;;;;5107195;28;20048;-85
2021/11/10 00:29:12;;;;;;;11.63;5.70;;;5.80;99.90;;;;;;5110814;28;20035;-85
2021/11/10 00:31:39;;;;;;;12.75;6.32;;;5.80;99.90;;;;;;5111070;28;20067;-85
2021/11/10 00:34:05;;;;;;;9.98;5.70;;;5.70;99.90;;;;;;5110827;28;20446;-86
2021/11/10 00:36:31;;;;;;;10.52;6.05;;;5.70;99.90;;;;;;5111427;28;20475;-85
2021/11/10 00:38:57;;;;;;;11.00;5.82;;;5.70;99.90;;;;;;5112365;28;20035;-86
2021/11/10 00:41:23;;;;;;;10.55;6.30;;;5.60;99.90;;;;;;5110732;28;20495;-85
2021/11/10 00:43:49;;;;;;;10.30;5.78;;;5.60;99.90;;;;;;5111185;28;20020;-86
2021/11/10 00:46:15;;;;;;;10.50;6.03;;;5.60;99.90;;;;;;5110832;28;20092;-85
2021/11/10 00:48:41;;;;;;;13.75;6.10;;;5.60;99.90;;;;;;5112616;28;20031;-84
2021/11/10 00:51:07;;;;;;;10.50;6.35;;;5.70;99.90;;;;;;5111186;28;20038;-85
2021/11/10 00:53:32;;;;;;;11.82;6.18;;;5.60;99.90;;;;;;5112785;28;20066;-86
2021/11/10 00:55:58;;;;;;;9.07;5.50;;;5.60;99.90;;;;;;5110955;28;20028;-85
2021/11/10 00:58:24;;;;;;;13.00;6.20;;;5.60;99.90;;;;;;5111427;28;20031;-85
2021/11/10 01:00:50;;;;;;;8.55;5.40;;;5.50;99.90;;;;;;5111595;28;20051;-86
2021/11/10 01:03:15;;;;;;;9.93;6.05;;;5.40;99.90;;;;;;5094039;28;20027;-86
2021/11/10 01:05:42;;;;;;;10.52;5.72;;;5.40;99.90;;;;;;5111220;28;20110;-85
2021/11/10 01:08:10;;;;;;;10.52;6.00;;;5.40;99.90;;;;;;5121236;27;20166;-85
2021/11/10 01:10:37;;;;;;;11.98;6.00;;;5.40;99.90;;;;;;5111304;28;20083;-86
2021/11/10 01:13:03;;;;;;;9.48;5.35;;;5.40;99.90;;;;;;5110988;28;20057;-86
2021/11/10 01:15:29;;;;;;;11.98;5.90;;;5.40;99.90;;;;;;5112066;28;20061;-86
2021/11/10 01:17:55;;;;;;;10.88;5.70;;;5.40;99.90;;;;;;5111032;28;20020;-85
2021/11/10 01:20:21;;;;;;;10.75;5.68;;;5.40;99.90;;;;;;5110600;28;20032;-86
2021/11/10 01:22:47;;;;;;;13.02;6.50;;;5.30;99.90;;;;;;5110108;28;20031;-85
2021/11/10 01:25:14;;;;;;;10.07;5.93;;;5.30;99.90;;;;;;5110288;28;20051;-85
2021/11/10 01:27:40;;;;;;;9.23;5.90;;;5.20;99.90;;;;;;5110550;28;20110;-85
2021/11/10 01:30:09;;;;;;;12.20;6.88;;;5.20;99.90;;;;;;5110826;28;20031;-85
2021/11/10 01:32:35;;;;;;;8.38;5.60;;;5.10;99.90;;;;;;5109802;28;20035;-85
2021/11/10 01:35:01;;;;;;;9.27;5.78;;;5.10;99.90;;;;;;5110306;28;20032;-86
2021/11/10 01:37:27;;;;;;;13.63;6.43;;;5.10;99.90;;;;;;5110038;28;20506;-86
2021/11/10 01:39:52;;;;;;;10.70;6.32;;;5.10;99.90;;;;;;5109435;28;20043;-85
2021/11/10 01:42:19;;;;;;;11.20;6.40;;;5.00;99.90;;;;;;5109759;28;20148;-85
2021/11/10 01:44:48;;;;;;;10.98;6.45;;;5.00;99.90;;;;;;5109467;28;20061;-87
2021/11/10 01:47:14;;;;;;;10.60;5.95;;;5.00;99.90;;;;;;5109653;28;20039;-86
2021/11/10 01:49:42;;;;;;;10.05;5.63;;;4.90;99.90;;;;;;5109929;28;20024;-85
2021/11/10 01:52:09;;;;;;;9.15;5.88;;;5.00;99.90;;;;;;5092829;28;20458;-85
2021/11/10 01:54:37;;;;;;;11.60;6.65;;;5.00;99.90;;;;;;5109263;28;20027;-85
2021/11/10 01:57:05;;;;;;;10.23;6.25;;;5.00;99.90;;;;;;5109173;28;20089;-86
2021/11/10 01:59:34;;;;;;;10.05;6.50;;;5.00;99.90;;;;;;5092698;28;20036;-86
2021/11/10 02:02:02;;;;;;;9.35;5.78;;;5.00;99.90;;;;;;5109567;28;20028;-86
2021/11/10 02:04:29;;;;;;;11.35;5.95;;;4.90;99.90;;;;;;5109467;28;20467;-86
2021/11/10 02:06:56;;;;;;;10.23;5.95;;;4.90;99.90;;;;;;5109229;28;20030;-86
2021/11/10 02:09:26;;;;;;;9.07;5.78;;;4.90;99.90;;;;;;5108736;28;20040;-86
2021/11/10 02:11:53;;;;;;;13.02;5.88;;;4.90;99.90;;;;;;5103921;28;20022;-85
2021/11/10 02:14:22;;;;;;;9.98;5.35;;;4.90;99.90;;;;;;5108650;28;20023;-86
2021/11/10 02:16:48;;;;;;;9.73;5.43;;;4.80;99.90;;;;;;5108880;28;20096;-85
2021/11/10 02:19:15;;;;;;;8.65;5.30;;;4.80;99.90;;;;;;5110362;28;20034;-86
2021/11/10 02:21:54;;;;;;;8.05;5.22;;;4.80;99.90;;;;;;5110801;28;20024;-86
2021/11/10 02:24:24;;;;;;;7.90;5.40;;;4.80;99.90;;;;;;5110462;28;20027;-86
2021/11/10 02:26:51;;;;;;;10.60;5.53;;;4.70;99.90;;;;;;5109153;28;20016;-86
2021/11/10 02:29:20;;;;;;;11.07;5.80;;;4.70;99.90;;;;;;5109168;28;20035;-86
2021/11/10 02:31:46;;;;;;;9.40;5.55;;;4.70;99.90;;;;;;5109481;27;20156;-83
2021/11/10 02:34:13;;;;;;;10.90;5.38;;;4.60;99.90;;;;;;5109510;28;20034;-86
2021/11/10 02:36:40;;;;;;;8.82;5.13;;;4.60;99.90;;;;;;5114661;28;20043;-85
2021/11/10 02:39:12;;;;;;;13.38;5.90;;;4.60;99.90;;;;;;5113393;28;20144;-85
2021/11/10 02:41:39;;;;;;;8.32;5.53;;;4.60;99.90;;;;;;5113542;28;20047;-85
2021/11/10 02:44:06;;;;;;;7.63;5.53;;;4.60;99.90;;;;;;5114990;28;20022;-85
2021/11/10 02:46:35;;;;;;;8.55;5.45;;;4.50;99.90;;;;;;5113868;28;20034;-85
2021/11/10 02:49:03;;;;;;;9.10;5.45;;;4.50;99.90;;;;;;5114614;28;20069;-85
2021/11/10 02:51:29;;;;;;;9.50;5.10;;;4.50;99.90;;;;;;5113457;28;20413;-85
2021/11/10 02:53:56;;;;;;;9.43;5.40;;;4.40;99.90;;;;;;5128419;27;20042;-86
2021/11/10 02:56:22;;;;;;;9.48;5.78;;;4.40;99.90;;;;;;5111271;28;20056;-87
2021/11/10 02:58:48;;;;;;;10.13;5.47;;;4.40;99.90;;;;;;5112452;28;20016;-86
2021/11/10 03:01:14;;;;;;;11.27;5.70;;;4.40;99.90;;;;;;5111669;28;20039;-86
2021/11/10 03:03:41;;;;;;;9.10;5.28;;;4.40;99.90;;;;;;5111607;28;20020;-85
2021/11/10 03:06:06;;;;;;;11.15;5.57;;;4.30;99.90;;;;;;5095879;28;20020;-86
2021/11/10 03:08:32;;;;;;;10.48;5.35;;;4.30;99.90;;;;;;5113391;28;20031;-86
2021/11/10 03:10:58;;;;;;;8.07;5.03;;;4.40;99.90;;;;;;5113708;28;20106;-86
2021/11/10 03:13:24;;;;;;;10.73;5.60;;;4.40;99.90;;;;;;5113297;28;20472;-86
2021/11/10 03:15:50;;;;;;;8.52;5.25;;;4.40;99.90;;;;;;5113080;28;20024;-86
2021/11/10 03:18:16;;;;;;;9.57;5.22;;;4.30;99.90;;;;;;5113317;28;20067;-86
2021/11/10 03:20:42;;;;;;;9.68;5.65;;;4.40;99.90;;;;;;5112735;28;20495;-86
2021/11/10 03:23:09;;;;;;;10.45;5.75;;;4.30;99.90;;;;;;5113218;28;20072;-86
2021/11/10 03:25:35;;;;;;;8.63;5.72;;;4.30;99.90;;;;;;5113893;28;20026;-86
2021/11/10 03:28:01;;;;;;;11.80;6.50;;;4.30;99.90;;;;;;5110981;28;20020;-86
2021/11/10 03:30:28;;;;;;;8.85;5.70;;;4.20;99.90;;;;;;5112931;28;20442;-86
2021/11/10 03:32:55;;;;;;;10.63;5.97;;;4.20;99.90;;;;;;5108543;28;20525;-86
2021/11/10 03:35:23;;;;;;;11.93;5.53;;;4.20;99.90;;;;;;5112775;28;20068;-86
2021/11/10 03:37:49;;;;;;;9.38;5.80;;;4.20;99.90;;;;;;5113351;28;20016;-86
2021/11/10 03:40:15;;;;;;;8.10;5.47;;;4.20;99.90;;;;;;5113446;28;20019;-86
2021/11/10 03:42:42;;;;;;;9.60;5.95;;;4.20;99.90;;;;;;5112627;28;20046;-86
2021/11/10 03:45:10;;;;;;;8.32;5.32;;;4.20;99.90;;;;;;5112792;28;20027;-86
2021/11/10 03:47:37;;;;;;;9.27;5.13;;;4.20;99.90;;;;;;5095650;28;20030;-86
2021/11/10 03:50:04;;;;;;;9.27;5.53;;;4.20;99.90;;;;;;5113436;28;20058;-85
2021/11/10 03:52:32;;;;;;;10.13;5.72;;;4.10;99.90;;;;;;5112948;28;20462;-86
2021/11/10 03:54:58;;;;;;;10.35;5.80;;;4.10;99.90;;;;;;5101970;28;20459;-86
2021/11/10 03:57:25;;;;;;;10.52;6.53;;;4.10;99.90;;;;;;5110706;28;20023;-86
2021/11/10 03:59:51;;;;;;;10.10;6.28;;;4.10;99.90;;;;;;5096140;28;20028;-86
2021/11/10 04:02:16;;;;;;;11.55;6.07;;;4.10;99.90;;;;;;5112276;28;20018;-86
2021/11/10 04:04:42;;;;;;;10.15;5.43;;;4.10;99.90;;;;;;5112860;28;20041;-86
2021/11/10 04:07:08;;;;;;;7.68;5.18;;;4.10;99.90;;;;;;5112665;28;20451;-86
2021/11/10 04:09:34;;;;;;;11.82;6.20;;;4.10;99.90;;;;;;5112797;28;20024;-86
2021/11/10 04:11:59;;;;;;;9.27;5.50;;;4.10;99.90;;;;;;5112787;28;20008;-86
2021/11/10 04:14:25;;;;;;;10.38;5.88;;;4.10;99.90;;;;;;5112710;28;20026;-86
2021/11/10 04:16:50;;;;;;;11.40;5.65;;;4.10;99.90;;;;;;5111657;28;20531;-86
2021/11/10 04:19:16;;;;;;;9.40;5.55;;;4.00;99.90;;;;;;5112693;28;20371;-86
2021/11/10 04:21:42;;;;;;;10.85;6.38;;;4.00;99.90;;;;;;5095818;28;20028;-86
2021/11/10 04:24:08;;;;;;;7.78;5.50;;;4.00;99.90;;;;;;5112777;28;20058;-86
2021/11/10 04:26:38;;;;;;;10.13;5.68;;;4.00;99.90;;;;;;5113823;28;20035;-86
2021/11/10 04:29:05;;;;;;;9.63;5.32;;;4.00;99.90;;;;;;5113838;28;20102;-86
2021/11/10 04:31:31;;;;;;;9.07;5.40;;;4.10;99.90;;;;;;5112611;28;20102;-86
2021/11/10 04:33:58;;;;;;;10.30;6.03;;;4.00;99.90;;;;;;5113329;28;20020;-86
2021/11/10 04:36:31;;;;;;;9.77;6.88;;;4.00;99.90;;;;;;5112669;28;20016;-86
2021/11/10 04:38:57;;;;;;;11.57;6.90;;;4.00;99.90;;;;;;5112379;28;20030;-86
2021/11/10 04:41:24;;;;;;;12.13;6.35;;;4.00;99.90;;;;;;5112286;28;20463;-86
2021/11/10 04:43:50;;;;;;;9.57;6.07;;;4.00;99.90;;;;;;5112570;28;20012;-86
2021/11/10 04:48:49;;;;;;;9.73;6.03;;;4.00;99.90;;;;;;5113836;28;20032;-86
2021/11/10 04:51:16;;;;;;;9.40;5.95;;;4.00;99.90;;;;;;5129544;28;20027;-86
2021/11/10 04:53:42;;;;;;;9.65;5.75;;;3.90;99.90;;;;;;5112379;28;20023;-86
2021/11/10 04:56:08;;;;;;;11.55;5.57;;;3.90;99.90;;;;;;5112693;28;20016;-86
2021/11/10 04:58:35;;;;;;;8.70;6.05;;;3.90;99.90;;;;;;5095467;28;20436;-86
2021/11/10 05:01:02;;;;;;;7.95;5.63;;;3.80;99.90;;;;;;5113107;28;20474;-86
2021/11/10 05:03:28;;;;;;;10.05;6.05;;;3.80;99.90;;;;;;5095145;28;20012;-86
2021/11/10 05:05:54;;;;;;;10.38;6.03;;;3.80;99.90;;;;;;5111849;28;20015;-86
2021/11/10 05:08:20;;;;;;;9.82;6.20;;;3.70;99.90;;;;;;5112472;28;20034;-86
2021/11/10 05:10:46;;;;;;;11.80;7.18;;;3.70;99.90;;;;;;5112294;28;20388;-86
2021/11/10 05:13:12;;;;;;;9.70;6.13;;;3.70;99.90;;;;;;5111909;28;20060;-86
2021/11/10 05:15:38;;;;;;;7.65;5.15;;;3.70;99.90;;;;;;5113843;28;20076;-86
2021/11/10 05:18:03;;;;;;;8.10;5.20;;;3.70;99.90;;;;;;5116030;28;20020;-86
2021/11/10 05:20:29;;;;;;;7.82;5.30;;;3.70;99.90;;;;;;5115687;28;20066;-86
2021/11/10 05:22:55;;;;;;;9.35;5.95;;;3.70;99.90;;;;;;5115474;28;20020;-86
2021/11/10 05:25:21;;;;;;;11.02;6.40;;;3.60;99.90;;;;;;5115598;28;20028;-86
2021/11/10 05:27:49;;;;;;;10.88;6.13;;;3.60;99.90;;;;;;5115600;28;20041;-86
2021/11/10 05:30:14;;;;;;;10.18;6.68;;;3.50;99.90;;;;;;5115438;28;20022;-86
2021/11/10 05:32:42;;;;;;;12.05;6.82;;;3.50;99.90;;;;;;5115286;28;20019;-86
2021/11/10 05:35:09;;;;;;;12.10;6.63;;;3.50;99.90;;;;;;5108655;27;20020;-86
2021/11/10 05:37:35;;;;;;;10.57;5.85;;;3.50;99.90;;;;;;5117865;27;20473;-86
2021/11/10 05:40:01;;;;;;;10.95;6.40;;;3.50;99.90;;;;;;5119280;27;20026;-86
2021/11/10 05:42:28;;;;;;;10.00;6.28;;;3.50;99.90;;;;;;5117789;27;20090;-86
2021/11/10 05:44:55;;;;;;;11.13;5.88;;;3.50;99.90;;;;;;5093104;28;20086;-86
2021/11/10 05:47:21;;;;;;;8.88;5.63;;;3.50;99.90;;;;;;5096073;28;20044;-86
2021/11/10 05:49:47;;;;;;;10.10;5.53;;;3.50;99.90;;;;;;5112636;28;20027;-87
2021/11/10 05:52:13;;;;;;;7.97;5.45;;;3.40;99.90;;;;;;5095623;28;20027;-86
2021/11/10 05:54:40;;;;;;;9.27;5.72;;;3.50;99.90;;;;;;5112714;28;20520;-86
2021/11/10 05:57:07;;;;;;;9.13;5.28;;;3.50;99.90;;;;;;5095608;28;20528;-86
2021/11/10 05:59:33;;;;;;;11.73;5.88;;;3.50;99.90;;;;;;5114021;28;20443;-85
2021/11/10 06:02:01;;;;;;;9.32;5.13;;;3.40;99.90;;;;;;5112904;28;20098;-86
2021/11/10 06:04:28;;;;;;;9.63;5.85;;;3.50;99.90;;;;;;5112784;28;20016;-86
2021/11/10 06:06:55;;;;;;;12.45;6.80;;;3.50;99.90;;;;;;5114499;28;20024;-86
2021/11/10 06:09:20;;;;;;;10.55;6.40;;;3.40;99.90;;;;;;5113718;28;20025;-86
2021/11/10 06:11:46;;;;;;;9.98;6.18;;;3.30;99.90;;;;;;5113755;28;20053;-87
2021/11/10 06:14:15;;;;;;;9.13;6.15;;;3.30;99.90;;;;;;5097113;28;20115;-86
2021/11/10 06:16:47;;;;;;;9.30;5.57;;;3.30;99.90;;;;;;5113299;28;20011;-86
2021/11/10 06:19:20;;;;;;;8.55;5.72;;;3.30;99.90;;;;;;5097673;28;20032;-87
2021/11/10 06:21:59;;;;;;;9.18;5.72;;;3.30;99.90;;;;;;5114381;28;20022;-86
2021/11/10 06:24:26;;;;;;;9.57;5.45;;;3.30;99.90;;;;;;5112801;28;20485;-87
2021/11/10 06:26:58;;;;;;;9.40;5.65;;;3.20;99.90;;;;;;5112063;28;20106;-86
2021/11/10 06:29:36;;;;;;;9.85;5.68;;;3.20;99.90;;;;;;5113202;28;20351;-87
2021/11/10 06:32:09;;;;;;;9.40;5.90;;;3.20;99.90;;;;;;5114942;27;20027;-88
2021/11/10 06:34:45;;;;;;;11.52;5.93;;;3.20;99.90;;;;;;5113964;28;20131;-88
2021/11/10 06:37:34;;;;;;;10.95;6.18;;;3.20;99.90;;;;;;5110122;28;20012;-88
2021/11/10 06:43:36;;;;;;;12.13;5.45;;;3.20;99.90;;;;;;5096499;28;20379;-88
2021/11/10 06:46:21;;;;;;;9.38;5.78;;;3.20;99.90;;;;;;5106720;27;20463;-89
2021/11/10 06:49:03;;;;;;;10.77;5.55;;;3.20;99.90;;;;;;5116590;27;20081;-89
2021/11/10 06:51:39;;;;;;;11.48;6.22;;;3.20;99.90;;;;;;5100223;28;20099;-89
2021/11/10 06:54:23;;;;;;;9.40;5.53;;;3.20;99.90;;;;;;5114473;28;20340;-88
2021/11/10 06:57:00;;;;;;;8.20;5.63;;;3.20;99.90;;;;;;5114546;28;20016;-87
2021/11/10 06:59:35;;;;;;;9.43;5.43;;;3.20;99.90;;;;;;5108516;28;20031;-86
2021/11/10 07:02:08;;;;;;;9.40;5.45;;;3.20;99.90;;;;;;5118768;27;20442;-89
2021/11/10 07:04:40;;;;;;;8.73;5.60;;;3.20;99.90;;;;;;5118818;27;20020;-89
2021/11/10 07:07:10;;;;;;;8.97;5.70;;;3.20;99.90;;;;;;5113336;28;20046;-86
2021/11/10 07:09:53;;;;;;;8.75;6.00;;;3.20;99.90;;;;;;5114694;28;20027;-86
2021/11/10 07:12:31;;;;;;;10.13;6.07;;;3.30;99.90;;;;;;5119997;27;20111;-87
2021/11/10 07:15:08;;;;;;;8.30;5.88;;;3.30;99.90;;;;;;5116692;27;20366;-87
2021/11/10 07:17:37;;;;;;;9.80;6.32;;;3.30;99.90;;;;;;5114558;28;20028;-86
2021/11/10 07:20:09;;;;;;;9.32;6.03;;;3.30;99.90;;;;;;5113771;28;20114;-86
2021/11/10 07:22:39;;;;;;;11.55;7.28;;;3.30;99.90;;;;;;5121359;27;20148;-87
2021/11/10 07:25:11;;;;;;;12.38;7.57;;;3.40;99.90;;;;;;5097088;28;20020;-86
2021/11/10 07:27:43;;;;;;;13.98;8.25;;;3.60;99.90;;;;;;5113391;28;20111;-86
2021/11/10 07:30:37;;;;;;;11.25;7.50;;;3.80;99.90;;;;;;5113698;28;20070;-86
2021/11/10 07:33:09;;;;;;;11.65;7.38;;;3.80;99.90;;;;;;5096385;28;20474;-87
2021/11/10 07:35:37;;;;;;;11.32;7.85;;;3.90;99.90;;;;;;5113483;28;20073;-86
2021/11/10 07:38:07;;;;;;;12.05;7.90;;;3.80;99.90;;;;;;5112420;28;20043;-86
2021/11/10 07:40:42;;;;;;;13.70;9.18;;;3.90;99.90;;;;;;5112916;28;20358;-86
2021/11/10 07:43:15;;;;;;;17.02;9.38;;;3.90;99.90;;;;;;5120496;27;20043;-86
2021/11/10 07:45:51;;;;;;;15.00;9.75;;;3.90;99.90;;;;;;5095999;28;20030;-87
2021/11/10 07:48:35;;;;;;;12.60;8.63;;;4.00;99.90;;;;;;5112673;28;20467;-86
2021/11/10 07:51:04;;;;;;;14.18;9.50;;;4.00;99.90;;;;;;5112423;28;20058;-86
2021/11/10 07:53:40;;;;;;;14.73;9.30;;;4.00;99.90;;;;;;5112083;28;20096;-87
2021/11/10 07:56:09;;;;;;;17.52;9.15;;;4.10;99.90;;;;;;5130008;27;20027;-87
2021/11/10 07:58:42;;;;;;;14.55;8.48;;;4.10;99.90;;;;;;5112404;28;20042;-87
2021/11/10 08:01:11;;;;;;;13.02;8.13;;;4.10;99.90;;;;;;5112316;28;20023;-87
2021/11/10 08:03:40;;;;;;;12.88;7.80;;;4.20;99.90;;;;;;5128999;27;20015;-87
2021/11/10 08:06:07;;;;;;;17.80;8.23;;;4.20;99.90;;;;;;5112913;28;20523;-86
2021/11/10 08:08:47;;;;;;;14.55;8.40;;;4.30;99.90;;;;;;5094906;28;20118;-87
2021/11/10 08:11:13;;;;;;;15.60;8.20;;;4.40;99.90;;;;;;5111993;28;20011;-88
2021/11/10 08:13:42;;;;;;;12.93;7.57;;;4.40;99.90;;;;;;5120842;28;20019;-87
2021/11/10 08:16:10;;;;;;;15.98;8.68;;;4.50;99.90;;;;;;5112848;28;20030;-88
2021/11/10 08:19:08;;;;;;;14.48;7.85;;;4.60;99.90;;;;;;5113139;28;20023;-87
2021/11/10 08:21:42;;;;;;;15.80;9.05;;;4.80;99.90;;;;;;5115135;28;20047;-87
2021/11/10 08:24:11;;;;;;;19.77;9.88;;;4.90;99.90;;;;;;5120138;28;20019;-86
2021/11/10 08:26:51;;;;;;;18.45;9.55;;;5.10;99.90;;;;;;5113649;28;20027;-87
2021/11/10 08:29:21;;;;;;;17.52;9.35;;;5.30;99.90;;;;;;5112574;28;20466;-87
2021/11/10 08:31:48;;;;;;;14.50;7.80;;;5.50;99.90;;;;;;5112244;28;20088;-87
2021/11/10 08:34:17;;;;;;;15.50;9.90;;;5.50;99.90;;;;;;5112134;28;20114;-86
2021/11/10 08:36:48;;;;;;;17.40;8.98;;;5.70;99.90;;;;;;5112015;28;20043;-86
2021/11/10 08:39:17;;;;;;;14.98;8.45;;;5.70;99.90;;;;;;5106776;28;20375;-86
2021/11/10 08:41:47;;;;;;;14.73;8.63;;;5.80;99.90;;;;;;5112202;28;20026;-86
2021/11/10 08:44:17;;;;;;;16.02;9.15;;;5.80;99.90;;;;;;5136242;27;20125;-86
2021/11/10 08:46:48;;;;;;;17.13;9.38;;;5.90;99.90;;;;;;5095120;28;20375;-86
2021/11/10 08:49:17;;;;;;;17.90;10.40;;;6.00;99.90;;;;;;5092189;28;20110;-86
2021/11/10 08:51:46;;;;;;;14.25;9.52;;;6.90;99.90;;;;;;5116035;28;20092;-86
2021/11/10 08:54:15;;;;;;;14.88;9.63;;;8.50;99.90;;;;;;5115369;28;20012;-87
2021/11/10 08:56:42;;;;;;;14.10;9.80;;;10.20;99.90;;;;;;5098273;28;20046;-87
2021/11/10 08:59:11;;;;;;;15.05;9.25;;;11.30;99.90;;;;;;5115847;28;20061;-87
2021/11/10 09:01:54;;;;;;;13.80;8.05;;;12.10;99.90;;;;;;5116833;28;20049;-87
2021/11/10 09:04:24;;;;;;;11.68;7.28;;;13.10;99.90;;;;;;5122237;27;20024;-87
2021/11/10 09:07:03;;;;;;;12.48;7.63;;;14.10;99.90;;;;;;5115346;28;20022;-87
2021/11/10 09:09:36;;;;;;;12.10;7.28;;;14.70;99.90;;;;;;5115232;28;20024;-87
2021/11/10 09:12:05;;;;;;;10.23;6.22;;;15.30;99.90;;;;;;5115693;27;20478;-87
2021/11/10 09:14:31;;;;;;;10.63;6.32;;;15.90;99.90;;;;;;5121057;27;20016;-87
2021/11/10 09:17:01;;;;;;;11.63;7.13;;;16.50;99.90;;;;;;5115220;28;20023;-86
2021/11/10 09:19:27;;;;;;;11.10;6.63;;;16.80;99.90;;;;;;5097442;28;20043;-87
2021/11/10 09:21:53;;;;;;;13.48;6.55;;;17.20;99.90;;;;;;5114919;28;20068;-87
2021/11/10 09:24:20;;;;;;;12.30;7.15;;;17.40;99.90;;;;;;5111583;27;20084;-87
2021/11/10 09:26:50;;;;;;;11.77;7.70;;;17.50;99.90;;;;;;5097289;27;20036;-86
2021/11/10 09:29:20;;;;;;;12.40;8.52;;;17.70;99.90;;;;;;5107576;28;20407;-86
2021/11/10 09:31:54;;;;;;;14.27;9.52;;;17.60;99.90;;;;;;5115860;28;20015;-86
2021/11/10 09:34:20;;;;;;;10.55;7.07;;;17.60;99.90;;;;;;5115853;28;20363;-87
2021/11/10 09:36:48;;;;;;;14.63;7.05;;;17.80;99.90;;;;;;5097542;28;20023;-86
2021/11/10 09:39:28;;;;;;;13.55;7.03;;;18.00;99.90;;;;;;5096856;28;20134;-86
2021/11/10 09:41:59;;;;;;;14.30;7.50;;;17.60;99.90;;;;;;5105083;28;20051;-87
2021/11/10 09:44:31;;;;;;;12.00;7.07;;;17.00;99.90;;;;;;5097783;28;20112;-85
2021/11/10 09:47:06;;;;;;;10.73;6.28;;;16.90;99.90;;;;;;5114688;28;20027;-87
2021/11/10 09:49:41;;;;;;;10.15;5.72;;;17.50;99.90;;;;;;5113272;28;20052;-86
2021/11/10 09:52:12;;;;;;;9.80;5.82;;;18.50;99.90;;;;;;5114562;28;20019;-87
2021/11/10 09:54:37;;;;;;;9.20;6.00;;;18.70;99.90;;;;;;5109381;28;20554;-87
2021/11/10 09:57:04;;;;;;;12.82;6.43;;;18.50;99.90;;;;;;5114175;28;20057;-87
2021/11/10 09:59:36;;;;;;;9.50;5.65;;;18.40;99.90;;;;;;5097160;28;20023;-87
2021/11/10 10:02:12;;;;;;;10.40;6.05;;;18.60;99.90;;;;;;5097204;28;20023;-87
2021/11/10 10:04:54;;;;;;;11.75;6.10;;;19.40;99.90;;;;;;5114096;28;20120;-86
2021/11/10 10:07:26;;;;;;;11.27;6.30;;;19.50;99.90;;;;;;5092847;28;20008;-87
2021/11/10 10:09:52;;;;;;;8.27;5.40;;;19.20;99.90;;;;;;5104278;28;20020;-87
2021/11/10 10:12:40;;;;;;;10.13;5.35;;;19.30;99.90;;;;;;5114466;28;20012;-87
2021/11/10 10:15:13;;;;;;;10.70;5.30;;;19.30;99.90;;;;;;5097635;28;20126;-87
2021/11/10 10:17:59;;;;;;;9.82;5.97;;;19.70;99.90;;;;;;5114239;28;20071;-87
2021/11/10 10:21:43;;;;;;;8.80;4.93;;;20.10;99.90;;;;;;5096487;28;20031;-88
2021/11/10 10:24:14;;;;;;;9.82;4.43;;;20.60;99.90;;;;;;5015975;28;20497;-88
2021/11/10 10:26:52;;;;;;;8.82;3.97;;;21.20;99.90;;;;;;4995891;28;20022;-88
2021/11/10 10:29:18;;;;;;;8.95;4.53;;;21.40;99.90;;;;;;4991128;28;20034;-88
2021/11/10 10:31:45;;;;;;;8.95;4.90;;;21.70;99.90;;;;;;4996009;28;20100;-87
2021/11/10 10:34:18;;;;;;;6.47;4.40;;;21.90;99.90;;;;;;4998400;28;20018;-87
2021/11/10 10:36:48;;;;;;;10.10;4.85;;;22.00;99.90;;;;;;5088439;28;20039;-85
2021/11/10 10:39:24;;;;;;;6.43;4.00;;;22.00;99.80;;;;;;5091764;28;20019;-85
2021/11/10 10:41:56;;;;;;;9.15;5.18;;;22.30;99.50;;;;;;5113645;28;20019;-86
2021/11/10 10:44:34;;;;;;;9.00;4.57;;;22.40;98.50;;;;;;5117563;27;20044;-86
2021/11/10 10:47:18;;;;;;;9.25;4.85;;;22.30;98.40;;;;;;5115094;28;20343;-86
2021/11/10 10:49:54;;;;;;;8.68;5.00;;;22.40;97.70;;;;;;5097471;28;20019;-86
2021/11/10 10:52:29;;;;;;;9.95;5.30;;;22.30;97.50;;;;;;5113376;28;20047;-86
2021/11/10 10:54:58;;;;;;;10.57;5.25;;;22.40;96.90;;;;;;5107799;28;20498;-86
2021/11/10 10:57:45;;;;;;;9.02;4.60;;;22.10;96.80;;;;;;5108559;28;20455;-86
2021/11/10 11:00:41;;;;;;;9.48;5.30;;;22.20;96.80;;;;;;5106137;28;20026;-86
2021/11/10 11:03:23;;;;;;;10.18;5.47;;;21.70;96.30;;;;;;5112940;27;20011;-86
2021/11/10 11:05:58;;;;;;;8.20;4.53;;;20.40;97.20;;;;;;5112076;28;20443;-86
2021/11/10 11:08:38;;;;;;;6.60;4.32;;;19.30;98.30;;;;;;5113410;28;20118;-85
2021/11/10 11:11:39;;;;;;;9.48;5.63;;;19.10;99.20;;;;;;5111940;28;20019;-85
2021/11/10 11:14:15;;;;;;;9.07;4.65;;;18.90;99.40;;;;;;5059430;28;20023;-85
2021/11/10 11:16:43;;;;;;;8.40;4.70;;;18.60;99.90;;;;;;5111361;28;20015;-85
2021/11/10 11:19:19;;;;;;;9.30;5.55;;;18.60;99.90;;;;;;5073388;28;20032;-84
2021/11/10 11:21:50;;;;;;;13.82;6.82;;;18.40;99.90;;;;;;5109930;28;20482;-85
2021/11/10 11:24:48;;;;;;;9.85;6.18;;;18.10;99.90;;;;;;5094182;28;20024;-86
2021/11/10 11:27:18;;;;;;;11.30;5.60;;;17.50;99.90;;;;;;5065259;28;20019;-86
2021/11/10 11:29:46;;;;;;;8.10;4.97;;;16.90;99.90;;;;;;5111021;28;20089;-86
2021/11/10 11:32:31;;;;;;;9.77;5.53;;;16.60;99.90;;;;;;5092216;28;20027;-86
2021/11/10 11:35:30;;;;;;;13.05;6.85;;;16.40;99.90;;;;;;5110611;28;20016;-86
2021/11/10 11:38:17;;;;;;;10.55;7.00;;;16.20;99.90;;;;;;5105134;28;20437;-86
2021/11/10 11:40:45;;;;;;;12.55;7.03;;;16.80;99.90;;;;;;5118484;27;20446;-86
2021/11/10 11:43:18;;;;;;;10.23;6.15;;;17.80;99.90;;;;;;5110440;28;20116;-86
2021/11/10 11:45:52;;;;;;;10.18;5.35;;;18.30;99.90;;;;;;5110177;28;20482;-87
2021/11/10 11:48:28;;;;;;;8.30;5.43;;;18.80;99.90;;;;;;5095198;28;20016;-87
2021/11/10 11:51:02;;;;;;;7.82;5.28;;;19.70;99.90;;;;;;5110533;28;20363;-86
2021/11/10 11:53:34;;;;;;;7.75;4.60;;;20.30;99.70;;;;;;5111189;27;20015;-86
2021/11/10 11:56:28;;;;;;;8.55;5.65;;;20.80;99.10;;;;;;5110460;28;20370;-86
2021/11/10 11:59:00;;;;;;;9.43;5.95;;;20.90;98.20;;;;;;5108948;28;20120;-86
2021/11/10 12:01:29;;;;;;;8.95;4.95;;;20.80;98.30;;;;;;5093583;28;20068;-86
2021/11/10 12:03:58;;;;;;;8.75;5.30;;;20.80;98.60;;;;;;5118333;28;20077;-86
2021/11/10 12:06:25;;;;;;;11.50;6.38;;;20.50;98.50;;;;;;5095571;28;20026;-87
2021/11/10 12:08:55;;;;;;;8.63;4.72;;;19.70;98.90;;;;;;5111326;28;20432;-86
2021/11/10 12:11:40;;;;;;;8.73;5.38;;;18.80;99.90;;;;;;5112302;28;20020;-87
2021/11/10 12:14:22;;;;;;;9.15;5.43;;;17.80;99.90;;;;;;5110880;28;20348;-88
2021/11/10 12:17:25;;;;;;;11.05;7.15;;;17.10;99.90;;;;;;5112019;28;20481;-87
2021/11/10 12:20:05;;;;;;;9.35;5.82;;;16.30;99.90;;;;;;5111598;28;20447;-87
2021/11/10 12:22:51;;;;;;;10.38;5.85;;;15.90;99.90;;;;;;5116905;28;20501;-87
2021/11/10 12:25:19;;;;;;;9.55;5.38;;;15.80;99.90;;;;;;5109852;28;20023;-87
2021/11/10 12:27:48;;;;;;;14.68;7.13;;;15.60;99.90;;;;;;5097786;28;20040;-85
2021/11/10 12:30:22;;;;;;;13.90;8.15;;;15.60;99.90;;;;;;5096291;28;20038;-86
2021/11/10 12:33:09;;;;;;;11.43;7.20;;;15.60;99.90;;;;;;5114099;28;20036;-86
2021/11/10 12:35:50;;;;;;;11.43;7.38;;;15.60;99.90;;;;;;5097075;28;20036;-86
2021/11/10 12:38:28;;;;;;;13.13;7.70;;;15.50;99.90;;;;;;5114155;28;20126;-86
2021/11/10 12:41:03;;;;;;;9.63;6.80;;;15.60;99.90;;;;;;5117504;27;20099;-87
2021/11/10 12:43:49;;;;;;;13.32;8.35;;;15.70;99.90;;;;;;5123704;27;20061;-86
2021/11/10 12:46:28;;;;;;;9.90;6.80;;;15.60;99.90;;;;;;5099483;28;20127;-87
2021/11/10 12:49:45;;;;;;;16.08;7.88;;;15.50;99.90;;;;;;5115017;27;20019;-87
2021/11/10 12:52:25;;;;;;;10.73;7.32;;;15.50;99.90;;;;;;5115930;28;20031;-85
2021/11/10 12:55:17;;;;;;;8.95;6.43;;;15.20;99.90;;;;;;5116485;28;20096;-87
2021/11/10 12:57:44;;;;;;;12.23;6.40;;;15.00;99.90;;;;;;5115570;28;20527;-87
2021/11/10 13:00:22;;;;;;;9.90;5.70;;;14.80;99.90;;;;;;5122214;27;20046;-87
2021/11/10 13:03:00;;;;;;;13.68;7.50;;;14.80;99.90;;;;;;5115804;27;20083;-87
2021/11/10 13:05:37;;;;;;;10.77;6.90;;;14.60;99.90;;;;;;5114267;27;20034;-86
2021/11/10 13:08:17;;;;;;;13.55;7.82;;;14.20;99.90;;;;;;5106348;28;20144;-86
2021/11/10 13:10:51;;;;;;;10.15;6.80;;;14.00;99.90;;;;;;5115440;27;20016;-87
2021/11/10 13:13:18;;;;;;;13.38;8.05;;;13.80;99.90;;;;;;5109038;28;20027;-86